createdAt,value
2019-06-09T00:01:42.255Z,2.47
2019-06-09T00:04:04.803Z,1.90
2019-06-09T00:06:34.311Z,2.20
2019-06-09T00:09:04.885Z,1.83
2019-06-09T00:11:34.296Z,2.00
2019-06-09T00:14:04.973Z,1.80
2019-06-09T00:16:34.671Z,2.80
2019-06-09T00:19:04.533Z,3.80
2019-06-09T00:21:34.026Z,3.00
2019-06-09T00:24:03.452Z,2.20
2019-06-09T00:26:32.784Z,2.33
2019-06-09T00:29:02.711Z,2.20
2019-06-09T00:31:47.879Z,2.40
2019-06-09T00:34:14.002Z,2.47
2019-06-09T00:36:43.452Z,2.20
2019-06-09T00:39:15.105Z,2.73
2019-06-09T00:41:48.437Z,1.63
2019-06-09T00:44:19.391Z,2.00
2019-06-09T00:46:49.080Z,2.70
2019-06-09T00:49:18.540Z,2.83
2019-06-09T00:51:48.824Z,2.17
2019-06-09T00:54:19.511Z,2.03
2019-06-09T00:56:49.701Z,1.70
2019-06-09T00:59:20.928Z,2.70
2019-06-09T01:02:00.098Z,2.67
2019-06-09T01:04:21.196Z,1.80
2019-06-09T01:06:50.603Z,1.57
2019-06-09T01:09:19.963Z,2.60
2019-06-09T01:11:49.339Z,2.60
2019-06-09T01:14:19.797Z,2.50
2019-06-09T01:16:49.279Z,2.60
2019-06-09T01:19:20.143Z,1.97
2019-06-09T01:21:49.818Z,2.30
2019-06-09T01:24:20.366Z,2.07
2019-06-09T01:26:49.864Z,1.80
2019-06-09T01:29:20.655Z,2.23
2019-06-09T01:31:50.349Z,1.80
2019-06-09T01:34:20.376Z,1.80
2019-06-09T01:36:49.884Z,2.13
2019-06-09T01:39:20.990Z,2.90
2019-06-09T01:41:50.270Z,2.30
2019-06-09T01:44:20.712Z,2.00
2019-06-09T01:46:50.307Z,2.97
2019-06-09T01:49:21.240Z,2.00
2019-06-09T01:51:50.685Z,2.63
2019-06-09T01:54:20.667Z,2.33
2019-06-09T01:56:50.251Z,1.93
2019-06-09T01:59:21.577Z,2.10
2019-06-09T02:01:50.612Z,1.83
2019-06-09T02:04:21.509Z,2.30
2019-06-09T02:06:50.988Z,2.27
2019-06-09T02:09:22.050Z,2.67
2019-06-09T02:11:51.376Z,2.13
2019-06-09T02:14:22.285Z,2.20
2019-06-09T02:16:51.756Z,2.10
2019-06-09T02:19:23.354Z,2.13
2019-06-09T02:21:52.133Z,2.07
2019-06-09T02:24:23.885Z,2.20
2019-06-09T02:26:52.512Z,2.30
2019-06-09T02:29:22.910Z,1.83
2019-06-09T02:31:52.905Z,2.07
2019-06-09T02:34:29.939Z,1.87
2019-06-09T02:36:54.472Z,2.30
2019-06-09T02:39:31.058Z,2.80
2019-06-09T02:41:54.985Z,2.67
2019-06-09T02:44:29.618Z,2.70
2019-06-09T02:46:56.405Z,2.10
2019-06-09T02:49:34.144Z,2.60
2019-06-09T02:51:57.061Z,2.93
2019-06-09T02:54:36.191Z,2.50
2019-06-09T02:56:57.492Z,1.97
2019-06-09T02:59:32.543Z,2.70
2019-06-09T03:01:57.878Z,2.13
2019-06-09T03:04:34.598Z,2.80
2019-06-09T03:06:58.260Z,2.30
2019-06-09T03:09:33.084Z,2.37
2019-06-09T03:12:02.094Z,2.37
2019-06-09T03:14:36.045Z,2.10
2019-06-09T03:17:02.631Z,2.10
2019-06-09T03:19:40.977Z,2.30
2019-06-09T03:22:02.730Z,2.10
2019-06-09T03:24:40.314Z,2.10
2019-06-09T03:27:03.104Z,1.90
2019-06-09T03:29:41.168Z,2.27
2019-06-09T03:32:23.288Z,2.50
2019-06-09T03:36:07.060Z,1.80
2019-06-09T03:37:37.888Z,2.50
2019-06-09T03:39:42.147Z,1.50
2019-06-09T03:42:09.529Z,1.90
2019-06-09T03:44:44.927Z,1.77
2019-06-09T03:47:12.125Z,1.90
2019-06-09T03:49:45.320Z,2.00
2019-06-09T03:52:12.348Z,1.80
2019-06-09T03:54:46.198Z,2.40
2019-06-09T03:57:13.899Z,3.00
2019-06-09T03:59:47.754Z,2.27
2019-06-09T04:02:14.459Z,2.60
2019-06-09T04:04:46.427Z,3.23
2019-06-09T04:07:14.833Z,2.13
2019-06-09T04:09:44.214Z,2.00
2019-06-09T04:12:13.569Z,1.90
2019-06-09T04:14:44.433Z,2.00
2019-06-09T04:17:13.952Z,2.17
2019-06-09T04:19:46.931Z,2.07
2019-06-09T04:22:14.338Z,2.17
2019-06-09T04:24:44.445Z,1.97
2019-06-09T04:27:14.090Z,2.13
2019-06-09T04:29:44.226Z,1.60
2019-06-09T04:32:13.728Z,1.57
2019-06-09T04:34:45.970Z,1.63
2019-06-09T04:37:14.165Z,1.70
2019-06-09T04:39:46.144Z,2.70
2019-06-09T04:42:14.518Z,1.90
2019-06-09T04:44:45.315Z,2.03
2019-06-09T04:47:14.973Z,2.07
2019-06-09T04:49:46.884Z,2.13
2019-06-09T04:52:15.365Z,2.23
2019-06-09T04:54:45.882Z,1.90
2019-06-09T04:57:15.581Z,2.20
2019-06-09T04:59:46.912Z,2.13
2019-06-09T05:02:16.019Z,2.27
2019-06-09T05:04:49.333Z,2.13
2019-06-09T05:07:26.105Z,2.17
2019-06-09T05:09:48.194Z,1.80
2019-06-09T05:12:17.759Z,2.03
2019-06-09T05:14:48.547Z,1.97
2019-06-09T05:17:18.165Z,2.27
2019-06-09T05:19:52.004Z,1.70
2019-06-09T05:22:21.851Z,2.40
2019-06-09T05:24:54.382Z,1.80
2019-06-09T05:27:21.715Z,2.30
2019-06-09T05:29:51.606Z,1.80
2019-06-09T05:32:22.272Z,1.83
2019-06-09T05:34:51.842Z,2.00
2019-06-09T05:37:25.975Z,2.03
2019-06-09T05:39:52.669Z,2.00
2019-06-09T05:42:22.302Z,1.53
2019-06-09T05:44:51.689Z,1.50
2019-06-09T05:47:21.048Z,2.37
2019-06-09T05:49:51.680Z,2.10
2019-06-09T05:52:21.793Z,1.20
2019-06-09T05:54:51.416Z,1.50
2019-06-09T05:57:21.678Z,1.50
2019-06-09T05:59:51.263Z,2.00
2019-06-09T06:02:21.873Z,1.93
2019-06-09T06:04:51.915Z,1.50
2019-06-09T06:07:27.590Z,1.97
2019-06-09T06:09:52.787Z,1.40
2019-06-09T06:12:22.232Z,1.50
2019-06-09T06:14:51.715Z,2.00
2019-06-09T06:17:21.698Z,1.77
2019-06-09T06:19:51.339Z,1.60
2019-06-09T06:22:21.736Z,2.13
2019-06-09T06:24:51.276Z,1.70
2019-06-09T06:27:22.100Z,2.30
2019-06-09T06:29:52.096Z,2.20
2019-06-09T06:32:21.572Z,1.90
2019-06-09T06:34:51.989Z,1.80
2019-06-09T06:37:35.180Z,1.87
2019-06-09T06:39:52.667Z,1.50
2019-06-09T06:42:22.058Z,1.60
2019-06-09T06:44:52.087Z,2.07
2019-06-09T06:47:21.944Z,1.90
2019-06-09T06:49:52.244Z,2.80
2019-06-09T06:52:22.005Z,1.30
2019-06-09T06:54:51.800Z,1.30
2019-06-09T06:57:21.561Z,1.57
2019-06-09T06:59:53.043Z,3.27
2019-06-09T07:02:22.216Z,1.47
2019-06-09T07:04:53.414Z,1.53
2019-06-09T07:07:24.911Z,1.33
2019-06-09T07:09:54.550Z,1.60
2019-06-09T07:12:24.047Z,1.37
2019-06-09T07:14:53.417Z,1.60
2019-06-09T07:17:22.807Z,2.20
2019-06-09T07:19:52.769Z,1.50
2019-06-09T07:22:22.258Z,1.70
2019-06-09T07:24:53.517Z,1.67
2019-06-09T07:27:25.875Z,1.70
2019-06-09T07:29:56.047Z,1.30
2019-06-09T07:32:24.729Z,1.80
2019-06-09T07:34:56.471Z,1.53
2019-06-09T07:37:25.132Z,2.53
2019-06-09T07:39:55.034Z,1.40
2019-06-09T07:42:27.488Z,1.90
2019-06-09T07:44:56.852Z,1.30
2019-06-09T07:47:26.394Z,1.40
2019-06-09T07:49:55.767Z,1.30
2019-06-09T07:52:25.139Z,1.40
2019-06-09T07:54:57.276Z,1.20
2019-06-09T07:57:26.684Z,1.30
2019-06-09T07:59:56.058Z,1.60
2019-06-09T08:02:25.447Z,2.90
2019-06-09T08:04:54.804Z,1.43
2019-06-09T08:07:24.203Z,1.37
2019-06-09T08:09:54.078Z,1.17
2019-06-09T08:12:23.539Z,1.40
2019-06-09T08:14:54.761Z,1.27
2019-06-09T08:17:23.949Z,1.10
2019-06-09T08:19:54.270Z,1.90
2019-06-09T08:22:24.235Z,1.27
2019-06-09T08:24:57.132Z,2.10
2019-06-09T08:27:26.682Z,1.47
2019-06-09T08:29:56.045Z,1.00
2019-06-09T08:32:25.769Z,1.43
2019-06-09T08:34:55.604Z,1.30
2019-06-09T08:37:26.026Z,1.37
2019-06-09T08:39:55.890Z,1.20
2019-06-09T08:42:26.478Z,1.93
2019-06-09T08:44:57.674Z,1.63
2019-06-09T08:47:27.066Z,1.97
2019-06-09T08:49:57.225Z,1.03
2019-06-09T08:52:26.540Z,1.33
2019-06-09T08:54:55.897Z,1.40
2019-06-09T08:57:25.312Z,1.10
2019-06-09T08:59:55.446Z,1.17
2019-06-09T09:02:24.988Z,1.30
2019-06-09T09:04:55.970Z,1.80
2019-06-09T09:07:25.394Z,0.80
2019-06-09T09:09:56.391Z,1.13
2019-06-09T09:12:25.829Z,1.57
2019-06-09T09:14:59.733Z,1.33
2019-06-09T09:17:26.118Z,1.67
2019-06-09T09:19:59.864Z,1.50
2019-06-09T09:22:26.489Z,1.00
2019-06-09T09:25:10.280Z,1.40
2019-06-09T09:27:26.894Z,1.30
2019-06-09T09:29:56.408Z,1.33
2019-06-09T09:32:25.780Z,1.33
2019-06-09T09:34:55.900Z,1.70
2019-06-09T09:37:26.184Z,1.70
2019-06-09T09:39:57.568Z,1.37
2019-06-09T09:42:26.584Z,1.47
2019-06-09T09:44:57.183Z,1.27
2019-06-09T09:47:26.614Z,1.73
2019-06-09T09:49:57.499Z,1.63
2019-06-09T09:52:27.056Z,1.40
2019-06-09T09:54:58.115Z,1.67
2019-06-09T09:57:27.473Z,1.30
2019-06-09T09:59:58.062Z,1.63
2019-06-09T10:02:27.522Z,1.30
2019-06-09T10:04:57.503Z,1.20
2019-06-09T10:07:26.963Z,1.33
2019-06-09T10:10:01.046Z,2.03
2019-06-09T10:12:27.363Z,1.53
2019-06-09T10:14:57.885Z,1.50
2019-06-09T10:17:27.420Z,1.57
2019-06-09T10:19:58.328Z,1.30
2019-06-09T10:22:29.076Z,1.30
2019-06-09T10:25:13.602Z,1.57
2019-06-09T10:27:31.715Z,1.60
2019-06-09T10:30:04.752Z,1.50
2019-06-09T10:32:31.686Z,1.53
2019-06-09T10:35:03.848Z,2.00
2019-06-09T10:37:32.105Z,1.30
2019-06-09T10:40:16.691Z,1.00
2019-06-09T10:42:32.521Z,1.43
2019-06-09T10:45:04.470Z,1.13
2019-06-09T10:47:32.915Z,1.10
2019-06-09T10:50:04.165Z,1.20
2019-06-09T10:52:33.370Z,1.90
2019-06-09T10:55:03.990Z,1.43
2019-06-09T10:57:33.471Z,1.30
2019-06-09T11:00:18.164Z,1.30
2019-06-09T11:02:33.868Z,1.50
2019-06-09T11:05:04.904Z,1.70
2019-06-09T11:07:34.316Z,1.43
2019-06-09T11:10:18.242Z,1.57
2019-06-09T11:12:34.727Z,1.33
2019-06-09T11:15:05.723Z,1.10
2019-06-09T11:17:35.396Z,1.27
2019-06-09T11:20:05.399Z,1.40
2019-06-09T11:22:34.755Z,1.30
2019-06-09T11:25:14.251Z,1.47
2019-06-09T11:27:35.521Z,1.40
2019-06-09T11:30:17.730Z,1.33
2019-06-09T11:32:36.867Z,1.60
2019-06-09T11:35:10.800Z,1.80
2019-06-09T11:37:41.538Z,1.13
2019-06-09T11:40:14.067Z,1.30
2019-06-09T11:42:42.028Z,1.40
2019-06-09T11:45:12.015Z,1.53
2019-06-09T11:47:41.766Z,1.20
2019-06-09T11:50:11.482Z,1.97
2019-06-09T11:52:40.973Z,1.47
2019-06-09T11:55:11.681Z,1.53
2019-06-09T11:57:41.811Z,1.53
2019-06-09T12:00:18.860Z,1.47
2019-06-09T12:02:42.483Z,1.70
2019-06-09T12:05:11.847Z,1.50
2019-06-09T12:07:42.104Z,1.60
2019-06-09T12:10:12.153Z,1.30
2019-06-09T12:12:41.870Z,1.27
2019-06-09T12:15:11.372Z,1.60
2019-06-09T12:17:41.116Z,1.60
2019-06-09T12:20:11.532Z,1.70
2019-06-09T12:22:40.947Z,1.37
2019-06-09T12:25:14.774Z,1.50
2019-06-09T12:27:42.381Z,1.13
2019-06-09T12:30:18.184Z,1.40
2019-06-09T12:32:43.088Z,1.33
2019-06-09T12:35:13.460Z,1.50
2019-06-09T12:37:42.839Z,1.60
2019-06-09T12:40:12.195Z,1.70
2019-06-09T12:42:41.580Z,1.10
2019-06-09T12:45:11.959Z,2.87
2019-06-09T12:47:41.598Z,1.10
2019-06-09T12:50:21.527Z,1.47
2019-06-09T12:52:51.241Z,1.40
2019-06-09T12:55:21.753Z,1.30
2019-06-09T12:57:51.959Z,1.30
2019-06-09T13:00:25.670Z,1.47
2019-06-09T13:02:52.795Z,1.20
2019-06-09T13:05:22.155Z,1.23
2019-06-09T13:07:51.531Z,1.30
2019-06-09T13:10:21.451Z,1.50
2019-06-09T13:12:51.504Z,1.37
2019-06-09T13:15:21.994Z,1.67
2019-06-09T13:17:51.550Z,1.60
2019-06-09T13:20:23.633Z,1.20
2019-06-09T13:22:52.048Z,1.50
2019-06-09T13:25:21.405Z,1.40
2019-06-09T13:27:51.229Z,2.10
2019-06-09T13:30:21.799Z,1.23
2019-06-09T13:32:51.837Z,1.60
2019-06-09T13:35:22.256Z,1.60
2019-06-09T13:37:52.016Z,1.43
2019-06-09T13:40:21.780Z,1.80
2019-06-09T13:42:52.559Z,1.97
2019-06-09T13:45:25.055Z,1.40
2019-06-09T13:47:54.447Z,1.70
2019-06-09T13:50:23.804Z,1.57
2019-06-09T13:52:53.203Z,1.50
2019-06-09T13:55:22.490Z,1.53
2019-06-09T13:57:51.898Z,1.43
2019-06-09T14:00:23.686Z,1.60
2019-06-09T14:02:53.251Z,1.97
2019-06-09T14:05:24.954Z,1.50
2019-06-09T14:07:53.899Z,1.27
2019-06-09T14:10:23.432Z,1.73
2019-06-09T14:12:52.856Z,1.60
2019-06-09T14:15:25.844Z,1.47
2019-06-09T14:17:53.294Z,1.60
2019-06-09T14:20:22.660Z,2.10
2019-06-09T14:22:52.059Z,1.43
2019-06-09T14:25:22.142Z,1.60
2019-06-09T14:27:51.595Z,1.60
2019-06-09T14:30:22.869Z,1.57
2019-06-09T14:32:52.469Z,1.10
2019-06-09T14:35:22.738Z,1.90
2019-06-09T14:37:52.547Z,1.47
2019-06-09T14:40:22.023Z,1.43
2019-06-09T14:42:51.599Z,1.67
2019-06-09T14:45:24.724Z,1.20
2019-06-09T14:47:52.587Z,1.43
2019-06-09T14:50:22.795Z,1.50
2019-06-09T14:52:52.307Z,1.67
2019-06-09T14:55:23.225Z,1.03
2019-06-09T14:57:52.731Z,1.83
2019-06-09T15:00:25.600Z,1.63
2019-06-09T15:02:53.235Z,1.80
2019-06-09T15:05:23.792Z,1.67
2019-06-09T15:07:53.367Z,1.30
2019-06-09T15:10:22.736Z,1.90
2019-06-09T15:12:52.188Z,1.80
2019-06-09T15:15:24.638Z,1.53
2019-06-09T15:17:53.116Z,1.80
2019-06-09T15:20:24.302Z,1.80
2019-06-09T15:22:53.487Z,1.47
2019-06-09T15:25:23.659Z,1.90
2019-06-09T15:27:53.239Z,1.60
2019-06-09T15:30:26.545Z,1.70
2019-06-09T15:32:53.849Z,1.67
2019-06-09T15:35:24.963Z,2.20
2019-06-09T15:38:02.026Z,2.20
2019-06-09T15:40:25.260Z,1.90
2019-06-09T15:42:55.771Z,1.73
2019-06-09T15:45:26.052Z,2.60
2019-06-09T15:47:55.559Z,1.90
2019-06-09T15:50:25.040Z,1.70
2019-06-09T15:52:55.017Z,2.03
2019-06-09T15:55:26.032Z,2.00
2019-06-09T15:57:55.632Z,1.50
2019-06-09T16:00:37.680Z,1.97
2019-06-09T16:03:07.416Z,2.03
2019-06-09T16:05:41.456Z,2.10
2019-06-09T16:08:11.749Z,1.73
2019-06-09T16:10:41.886Z,2.00
2019-06-09T16:13:16.822Z,1.80
2019-06-09T16:15:42.647Z,1.90
2019-06-09T16:18:12.112Z,1.37
2019-06-09T16:20:42.019Z,1.80
2019-06-09T16:23:13.736Z,1.80
2019-06-09T16:25:44.636Z,2.43
2019-06-09T16:28:14.045Z,1.77
2019-06-09T16:30:43.447Z,2.20
2019-06-09T16:33:12.810Z,2.17
2019-06-09T16:35:42.201Z,2.20
2019-06-09T16:38:12.111Z,1.90
2019-06-09T16:40:41.514Z,1.80
2019-06-09T16:43:28.548Z,1.90
2019-06-09T16:45:42.741Z,1.70
2019-06-09T16:48:12.222Z,2.03
2019-06-09T16:50:54.066Z,2.13
2019-06-09T16:53:12.783Z,2.00
2019-06-09T16:55:42.138Z,2.37
2019-06-09T16:58:11.499Z,2.43
2019-06-09T17:00:41.085Z,2.20
2019-06-09T17:03:12.334Z,2.47
2019-06-09T17:05:41.883Z,1.90
2019-06-09T17:08:21.757Z,1.93
2019-06-09T17:10:50.959Z,2.00
2019-06-09T17:13:23.898Z,1.90
2019-06-09T17:15:51.737Z,2.33
2019-06-09T17:18:23.316Z,2.60
2019-06-09T17:20:52.235Z,2.80
2019-06-09T17:23:27.812Z,2.73
2019-06-09T17:25:52.647Z,2.43
2019-06-09T17:28:22.862Z,2.00
2019-06-09T17:30:53.955Z,2.20
2019-06-09T17:33:26.056Z,1.57
2019-06-09T17:35:54.624Z,2.03
2019-06-09T17:38:25.080Z,2.10
2019-06-09T17:41:05.252Z,2.03
2019-06-09T17:43:26.536Z,2.00
2019-06-09T17:45:55.985Z,2.07
2019-06-09T17:48:25.339Z,1.83
2019-06-09T17:50:54.749Z,2.10
2019-06-09T17:53:24.108Z,1.63
2019-06-09T17:55:53.516Z,2.23
2019-06-09T17:58:22.892Z,1.90
2019-06-09T18:00:52.276Z,2.77
2019-06-09T18:03:23.208Z,2.33
2019-06-09T18:05:52.789Z,2.33
2019-06-09T18:08:22.160Z,2.17
2019-06-09T18:10:52.170Z,2.10
2019-06-09T18:13:22.056Z,2.30
2019-06-09T18:16:02.384Z,2.40
2019-06-09T18:18:22.580Z,2.17
2019-06-09T18:20:51.960Z,2.67
2019-06-09T18:23:21.482Z,2.13
2019-06-09T18:25:51.322Z,2.50
2019-06-09T18:28:21.056Z,1.87
2019-06-09T18:30:57.163Z,2.03
2019-06-09T18:33:21.630Z,2.50
2019-06-09T18:35:53.140Z,2.50
2019-06-09T18:38:22.500Z,2.10
2019-06-09T18:40:54.014Z,2.10
2019-06-09T18:43:23.233Z,2.40
2019-06-09T18:45:52.612Z,1.93
2019-06-09T18:48:21.997Z,3.17
2019-06-09T18:50:51.749Z,2.10
2019-06-09T18:53:21.156Z,2.30
2019-06-09T18:55:51.658Z,2.10
2019-06-09T18:58:21.245Z,2.27
2019-06-09T19:00:52.006Z,2.10
2019-06-09T19:03:21.516Z,2.50
2019-06-09T19:05:50.901Z,2.80
2019-06-09T19:08:21.645Z,2.60
2019-06-09T19:10:51.380Z,2.37
2019-06-09T19:13:21.267Z,3.07
2019-06-09T19:15:50.978Z,2.00
2019-06-09T19:18:21.401Z,2.30
2019-06-09T19:20:51.866Z,2.20
2019-06-09T19:23:21.372Z,2.53
2019-06-09T19:25:51.530Z,2.33
2019-06-09T19:28:21.435Z,2.63
2019-06-09T19:30:50.782Z,2.50
2019-06-09T19:33:20.847Z,2.43
2019-06-09T19:35:50.340Z,2.30
2019-06-09T19:38:21.743Z,2.30
2019-06-09T19:40:50.797Z,2.30
2019-06-09T19:43:21.331Z,3.13
2019-06-09T19:45:51.962Z,2.50
2019-06-09T19:48:21.504Z,2.37
2019-06-09T19:50:51.107Z,2.60
2019-06-09T19:53:21.719Z,2.33
2019-06-09T19:55:51.697Z,2.20
2019-06-09T19:58:22.046Z,3.10
2019-06-09T20:00:51.672Z,2.50
2019-06-09T20:03:21.159Z,2.10
2019-06-09T20:05:51.937Z,2.17
2019-06-09T20:08:21.517Z,2.73
2019-06-09T20:10:52.155Z,2.57
2019-06-09T20:13:23.908Z,2.93
2019-06-09T20:15:55.080Z,2.63
2019-06-09T20:18:24.457Z,2.30
2019-06-09T20:20:53.823Z,2.50
2019-06-09T20:23:23.209Z,2.60
2019-06-09T20:25:52.600Z,2.47
2019-06-09T20:28:22.055Z,3.00
2019-06-09T20:30:51.471Z,2.10
2019-06-09T20:33:21.237Z,3.07
2019-06-09T20:35:53.058Z,3.20
2019-06-09T20:38:22.076Z,2.50
2019-06-09T20:40:57.611Z,2.40
2019-06-09T20:43:22.652Z,2.83
2019-06-09T20:46:08.787Z,3.00
2019-06-09T20:48:23.064Z,2.50
2019-06-09T20:50:55.568Z,2.53
2019-06-09T20:53:23.453Z,2.60
2019-06-09T20:56:00.145Z,3.27
2019-06-09T20:58:23.869Z,2.53
2019-06-09T21:00:56.556Z,2.93
2019-06-09T21:03:24.259Z,3.00
2019-06-09T21:05:55.229Z,2.77
2019-06-09T21:08:24.743Z,2.60
2019-06-09T21:10:55.643Z,2.70
2019-06-09T21:13:25.111Z,2.50
2019-06-09T21:16:12.262Z,2.70
2019-06-09T21:18:25.500Z,2.37
2019-06-09T21:20:55.304Z,2.87
2019-06-09T21:23:24.832Z,2.57
2019-06-09T21:25:55.950Z,3.00
2019-06-09T21:28:25.235Z,3.27
2019-06-09T21:30:58.380Z,3.23
2019-06-09T21:33:25.634Z,3.40
2019-06-09T21:35:54.922Z,2.63
2019-06-09T21:38:24.304Z,3.20
2019-06-09T21:40:55.665Z,3.13
2019-06-09T21:43:24.683Z,3.20
2019-06-09T21:45:57.337Z,3.90
2019-06-09T21:48:25.071Z,3.33
2019-06-09T21:50:56.455Z,3.43
2019-06-09T21:53:25.467Z,3.03
2019-06-09T21:55:56.724Z,2.90
2019-06-09T21:58:25.893Z,2.97
2019-06-09T22:00:58.974Z,3.30
2019-06-09T22:03:26.284Z,3.90
2019-06-09T22:05:57.739Z,2.87
2019-06-09T22:08:26.664Z,3.50
2019-06-09T22:10:56.440Z,3.33
2019-06-09T22:13:25.800Z,3.40
2019-06-09T22:15:56.767Z,2.33
2019-06-09T22:18:26.204Z,2.67
2019-06-09T22:20:57.622Z,2.97
2019-06-09T22:23:26.579Z,2.67
2019-06-09T22:25:56.892Z,2.97
2019-06-09T22:28:26.894Z,3.03
2019-06-09T22:30:57.151Z,2.73
2019-06-09T22:33:27.276Z,3.20
2019-06-09T22:35:57.766Z,4.00
2019-06-09T22:38:27.218Z,2.93
2019-06-09T22:40:58.191Z,3.77
2019-06-09T22:43:27.602Z,3.17
2019-06-09T22:45:56.971Z,3.93
2019-06-09T22:48:26.251Z,3.03
2019-06-09T22:50:57.752Z,2.87
2019-06-09T22:53:26.573Z,2.80
2019-06-09T22:55:57.246Z,3.20
2019-06-09T22:58:26.636Z,3.00
2019-06-09T23:00:57.429Z,3.50
2019-06-09T23:03:27.124Z,3.27
2019-06-09T23:05:59.203Z,2.93
2019-06-09T23:08:27.573Z,3.43
2019-06-09T23:10:57.241Z,3.20
2019-06-09T23:13:26.621Z,3.40
2019-06-09T23:15:56.919Z,3.33
2019-06-09T23:18:27.007Z,3.50
2019-06-09T23:20:57.606Z,3.30
2019-06-09T23:23:27.059Z,3.50
2019-06-09T23:25:57.754Z,3.20
2019-06-09T23:28:27.112Z,4.33
2019-06-09T23:30:56.938Z,4.30
2019-06-09T23:33:26.672Z,3.33
2019-06-09T23:35:56.824Z,3.80
2019-06-09T23:38:26.236Z,3.30
2019-06-09T23:40:55.621Z,3.53
2019-06-09T23:43:24.993Z,3.90
2019-06-09T23:45:55.525Z,4.20
2019-06-09T23:48:25.392Z,3.40
2019-06-09T23:50:54.771Z,4.13
2019-06-09T23:53:24.133Z,4.57
2019-06-09T23:55:54.556Z,3.53
2019-06-09T23:58:24.017Z,4.10
